createdAt,value
2022-12-18T00:02:01.012Z,2.87
2022-12-18T00:04:31.655Z,2.86
2022-12-18T00:07:01.864Z,2.85
2022-12-18T00:09:40.050Z,2.86
2022-12-18T00:14:48.543Z,2.82
2022-12-18T00:17:18.669Z,2.83
2022-12-18T00:19:48.710Z,2.83
2022-12-18T00:22:18.783Z,2.81
2022-12-18T00:24:48.855Z,2.86
2022-12-18T00:27:18.979Z,2.82
2022-12-18T00:29:52.241Z,2.79
2022-12-18T00:32:22.276Z,2.77
2022-12-18T00:34:52.650Z,2.81
2022-12-18T00:37:22.953Z,2.81
2022-12-18T00:39:53.600Z,2.57
2022-12-18T00:42:36.060Z,2.77
2022-12-18T00:45:12.869Z,2.72
2022-12-18T00:47:43.699Z,2.71
2022-12-18T00:50:14.852Z,2.74
2022-12-18T00:52:44.959Z,2.74
2022-12-18T00:55:15.623Z,2.67
2022-12-18T00:57:46.648Z,2.64
2022-12-18T01:00:19.781Z,2.71
2022-12-18T01:02:50.079Z,2.71
2022-12-18T01:05:20.722Z,2.67
2022-12-18T01:07:51.041Z,2.70
2022-12-18T01:10:21.642Z,2.68
2022-12-18T01:12:51.786Z,2.70
2022-12-18T01:15:24.707Z,2.64
2022-12-18T01:17:56.376Z,2.65
2022-12-18T01:20:26.491Z,2.69
2022-12-18T01:22:56.508Z,2.71
2022-12-18T01:25:26.640Z,2.71
2022-12-18T01:27:57.071Z,2.71
2022-12-18T01:30:29.743Z,2.71
2022-12-18T01:32:59.751Z,2.73
2022-12-18T01:35:29.898Z,2.74
2022-12-18T01:38:00.191Z,2.73
2022-12-18T01:40:30.271Z,2.73
2022-12-18T01:43:00.298Z,2.69
2022-12-18T01:45:35.087Z,2.59
2022-12-18T01:48:07.633Z,2.58
2022-12-18T01:50:40.805Z,2.58
2022-12-18T01:53:15.287Z,2.59
2022-12-18T01:55:50.311Z,2.57
2022-12-18T01:58:21.445Z,2.57
2022-12-18T02:00:54.185Z,2.54
2022-12-18T02:03:24.450Z,2.54
2022-12-18T02:06:04.964Z,2.56
2022-12-18T02:08:41.325Z,2.54
2022-12-18T02:11:18.311Z,2.55
2022-12-18T02:13:57.035Z,2.54
2022-12-18T02:16:38.905Z,2.56
2022-12-18T02:19:20.468Z,2.53
2022-12-18T02:21:58.121Z,2.51
2022-12-18T02:24:39.330Z,2.50
2022-12-18T02:27:14.610Z,2.53
2022-12-18T02:29:56.008Z,2.56
2022-12-18T02:32:31.317Z,2.44
2022-12-18T02:35:03.476Z,2.54
2022-12-18T02:37:34.711Z,2.57
2022-12-18T02:40:07.680Z,2.56
2022-12-18T02:42:40.367Z,2.58
2022-12-18T02:45:11.299Z,2.58
2022-12-18T02:47:47.884Z,2.58
2022-12-18T02:50:24.751Z,2.60
2022-12-18T02:53:06.430Z,2.62
2022-12-18T02:55:48.403Z,2.61
2022-12-18T02:58:24.886Z,2.57
2022-12-18T03:04:07.187Z,2.57
2022-12-18T03:06:43.519Z,2.59
2022-12-18T03:09:17.531Z,2.59
2022-12-18T03:12:06.895Z,2.59
2022-12-18T03:14:42.245Z,2.58
2022-12-18T03:17:17.451Z,2.58
2022-12-18T03:19:50.386Z,2.68
2022-12-18T03:22:21.841Z,2.73
2022-12-18T03:24:52.958Z,2.75
2022-12-18T03:27:27.877Z,2.76
2022-12-18T03:30:08.567Z,2.76
2022-12-18T03:32:45.347Z,2.73
2022-12-18T03:35:21.318Z,2.72
2022-12-18T03:37:51.625Z,2.68
2022-12-18T03:40:23.208Z,2.70
2022-12-18T03:42:56.362Z,2.72
2022-12-18T03:45:33.568Z,2.73
2022-12-18T03:48:08.187Z,2.73
2022-12-18T03:50:44.150Z,2.73
2022-12-18T03:53:27.680Z,2.74
2022-12-18T03:55:59.379Z,2.72
2022-12-18T03:58:31.584Z,2.71
2022-12-18T04:01:09.012Z,2.70
2022-12-18T04:03:40.623Z,2.70
2022-12-18T04:06:11.998Z,2.70
2022-12-18T04:08:43.219Z,2.69
2022-12-18T04:11:13.357Z,2.66
2022-12-18T04:13:43.804Z,2.61
2022-12-18T04:16:16.690Z,2.63
2022-12-18T04:18:46.855Z,2.61
2022-12-18T04:21:16.880Z,2.62
2022-12-18T04:23:47.070Z,2.60
2022-12-18T04:26:17.255Z,2.54
2022-12-18T04:28:48.086Z,2.51
2022-12-18T04:31:20.826Z,2.50
2022-12-18T04:33:51.082Z,2.46
2022-12-18T04:36:21.202Z,2.41
2022-12-18T04:38:51.259Z,2.34
2022-12-18T04:41:21.391Z,2.28
2022-12-18T04:43:51.428Z,2.20
2022-12-18T04:46:24.282Z,2.14
2022-12-18T04:48:57.150Z,2.10
2022-12-18T04:51:27.162Z,2.05
2022-12-18T04:53:57.421Z,1.99
2022-12-18T04:56:27.730Z,1.91
2022-12-18T04:58:58.920Z,1.85
2022-12-18T05:01:34.816Z,1.76
2022-12-18T05:04:05.573Z,1.72
2022-12-18T05:06:35.759Z,1.68
2022-12-18T05:09:06.048Z,1.73
2022-12-18T05:11:36.188Z,1.70
2022-12-18T05:14:06.434Z,1.65
2022-12-18T05:16:39.382Z,1.55
2022-12-18T05:19:09.725Z,1.48
2022-12-18T05:21:39.905Z,1.49
2022-12-18T05:24:10.603Z,1.47
2022-12-18T05:26:40.735Z,1.43
2022-12-18T05:29:13.333Z,1.41
2022-12-18T05:31:46.864Z,1.38
2022-12-18T05:34:17.083Z,1.32
2022-12-18T05:36:47.108Z,1.33
2022-12-18T05:39:17.237Z,1.35
2022-12-18T05:41:50.253Z,1.32
2022-12-18T05:44:20.320Z,1.35
2022-12-18T05:46:53.125Z,1.29
2022-12-18T05:49:23.307Z,1.26
2022-12-18T05:51:53.348Z,1.27
2022-12-18T05:54:23.502Z,1.26
2022-12-18T05:56:53.607Z,1.29
2022-12-18T05:59:23.854Z,1.32
2022-12-18T06:01:56.652Z,1.33
2022-12-18T06:04:28.564Z,1.38
2022-12-18T06:06:58.745Z,1.41
2022-12-18T06:09:28.880Z,1.42
2022-12-18T06:11:58.911Z,1.44
2022-12-18T06:14:29.271Z,1.45
2022-12-18T06:17:01.976Z,1.52
2022-12-18T06:19:32.441Z,1.51
2022-12-18T06:22:02.515Z,1.58
2022-12-18T06:24:34.293Z,1.60
2022-12-18T06:27:04.362Z,1.60
2022-12-18T06:29:34.401Z,1.60
2022-12-18T06:32:07.793Z,1.63
2022-12-18T06:34:38.325Z,1.65
2022-12-18T06:37:08.472Z,1.67
2022-12-18T06:39:38.579Z,1.70
2022-12-18T06:42:09.123Z,1.68
2022-12-18T06:44:39.167Z,1.63
2022-12-18T06:47:11.966Z,1.63
2022-12-18T06:49:42.174Z,1.56
2022-12-18T06:52:12.264Z,1.65
2022-12-18T06:54:42.398Z,1.58
2022-12-18T06:57:12.523Z,1.55
2022-12-18T06:59:42.678Z,1.57
2022-12-18T07:02:17.694Z,1.55
2022-12-18T07:04:55.141Z,1.62
2022-12-18T07:07:25.244Z,1.86
2022-12-18T07:09:55.338Z,2.18
2022-12-18T07:12:28.351Z,2.70
2022-12-18T07:15:00.568Z,3.08
2022-12-18T07:17:33.544Z,3.47
2022-12-18T07:20:03.630Z,3.86
2022-12-18T07:22:33.732Z,4.07
2022-12-18T07:25:03.875Z,4.25
2022-12-18T07:27:34.059Z,4.35
2022-12-18T07:30:04.380Z,4.58
2022-12-18T07:32:37.274Z,4.79
2022-12-18T07:35:08.268Z,4.71
2022-12-18T07:37:38.393Z,4.50
2022-12-18T07:40:10.043Z,4.30
2022-12-18T07:42:40.624Z,4.03
2022-12-18T07:45:11.998Z,3.93
2022-12-18T07:47:45.106Z,3.90
2022-12-18T07:50:15.345Z,3.85
2022-12-18T07:52:45.591Z,3.71
2022-12-18T07:55:15.713Z,3.50
2022-12-18T07:57:57.602Z,3.46
2022-12-18T08:00:31.448Z,3.38
2022-12-18T08:03:04.247Z,3.35
2022-12-18T08:05:34.359Z,3.33
2022-12-18T08:08:04.472Z,3.33
2022-12-18T08:10:34.652Z,3.28
2022-12-18T08:13:05.496Z,3.34
2022-12-18T08:15:35.522Z,3.38
2022-12-18T08:18:13.883Z,3.41
2022-12-18T08:20:47.501Z,3.48
2022-12-18T08:23:17.662Z,3.58
2022-12-18T08:25:48.045Z,3.59
2022-12-18T08:28:21.714Z,3.65
2022-12-18T08:30:55.729Z,3.79
2022-12-18T08:33:28.447Z,3.89
2022-12-18T08:35:58.423Z,3.97
2022-12-18T08:38:28.659Z,4.05
2022-12-18T08:41:03.327Z,4.12
2022-12-18T08:43:46.173Z,4.14
2022-12-18T08:46:16.739Z,4.31
2022-12-18T08:48:49.647Z,4.55
2022-12-18T08:51:20.901Z,4.79
2022-12-18T08:53:51.652Z,5.00
2022-12-18T08:56:21.736Z,5.11
2022-12-18T08:58:54.819Z,5.25
2022-12-18T09:01:25.972Z,4.86
2022-12-18T09:03:58.806Z,4.94
2022-12-18T09:06:29.216Z,4.92
2022-12-18T09:09:00.810Z,4.71
2022-12-18T09:11:32.786Z,4.81
2022-12-18T09:14:04.456Z,4.94
2022-12-18T09:16:36.135Z,4.69
2022-12-18T09:19:09.417Z,4.73
2022-12-18T09:21:42.199Z,4.78
2022-12-18T09:24:17.310Z,4.69
2022-12-18T09:26:53.624Z,4.59
2022-12-18T09:29:28.436Z,4.46
2022-12-18T09:31:58.632Z,4.61
2022-12-18T09:34:31.257Z,4.60
2022-12-18T09:37:01.284Z,4.77
2022-12-18T09:39:31.416Z,4.69
2022-12-18T09:42:02.574Z,4.42
2022-12-18T09:44:44.490Z,4.18
2022-12-18T09:47:21.189Z,4.05
2022-12-18T09:49:57.047Z,4.02
2022-12-18T09:52:31.647Z,4.09
2022-12-18T09:55:05.825Z,4.19
2022-12-18T09:57:41.415Z,4.25
2022-12-18T10:00:21.355Z,4.28
2022-12-18T10:02:52.742Z,4.21
2022-12-18T10:05:37.335Z,4.19
2022-12-18T10:08:14.822Z,3.98
2022-12-18T10:10:51.231Z,3.90
2022-12-18T10:13:30.076Z,3.98
2022-12-18T10:16:13.598Z,4.00
2022-12-18T10:19:20.315Z,3.90
2022-12-18T10:22:01.752Z,3.83
2022-12-18T10:24:46.374Z,3.78
2022-12-18T10:27:19.717Z,3.79
2022-12-18T10:29:50.004Z,3.70
2022-12-18T10:32:22.416Z,3.63
2022-12-18T10:35:00.104Z,3.68
2022-12-18T10:37:34.095Z,3.72
2022-12-18T10:40:22.028Z,3.72
2022-12-18T10:43:07.391Z,3.78
2022-12-18T10:45:37.408Z,3.82
2022-12-18T10:48:08.261Z,3.86
2022-12-18T10:51:09.630Z,3.92
2022-12-18T10:53:36.225Z,3.86
2022-12-18T10:56:08.995Z,3.92
2022-12-18T10:58:42.198Z,3.97
2022-12-18T11:01:14.900Z,4.01
2022-12-18T11:03:46.497Z,3.88
2022-12-18T11:06:18.810Z,3.59
2022-12-18T11:09:09.367Z,3.63
2022-12-18T11:11:43.256Z,3.74
2022-12-18T11:14:22.158Z,3.56
2022-12-18T11:19:45.395Z,4.10
2022-12-18T11:22:24.948Z,4.31
2022-12-18T11:25:32.318Z,4.08
2022-12-18T11:27:54.849Z,4.20
2022-12-18T11:30:27.115Z,4.17
2022-12-18T11:33:01.121Z,4.00
2022-12-18T11:35:42.194Z,4.07
2022-12-18T11:38:25.226Z,4.02
2022-12-18T11:41:08.065Z,3.90
2022-12-18T11:43:44.747Z,3.93
2022-12-18T11:46:20.029Z,3.81
2022-12-18T11:48:56.109Z,3.93
2022-12-18T11:51:32.391Z,3.78
2022-12-18T11:54:04.080Z,3.96
2022-12-18T11:56:40.273Z,4.07
2022-12-18T11:59:18.237Z,4.11
2022-12-18T12:01:54.950Z,4.20
2022-12-18T12:04:45.935Z,4.28
2022-12-18T12:07:29.577Z,4.30
2022-12-18T12:10:10.819Z,4.41
2022-12-18T12:12:59.527Z,4.40
2022-12-18T12:15:41.609Z,4.07
2022-12-18T12:18:29.863Z,3.93
2022-12-18T12:21:07.540Z,3.99
2022-12-18T12:23:48.489Z,3.79
2022-12-18T12:26:26.657Z,3.70
2022-12-18T12:29:14.340Z,3.52
2022-12-18T12:32:02.100Z,3.57
2022-12-18T12:34:40.953Z,3.60
2022-12-18T12:37:24.172Z,3.67
2022-12-18T12:39:56.987Z,3.78
2022-12-18T12:42:47.488Z,3.78
2022-12-18T12:45:26.726Z,3.59
2022-12-18T12:47:59.226Z,3.64
2022-12-18T12:50:30.223Z,3.61
2022-12-18T12:53:01.862Z,3.57
2022-12-18T12:55:33.736Z,3.49
2022-12-18T12:58:12.706Z,3.29
2022-12-18T13:00:50.618Z,3.28
2022-12-18T13:03:34.298Z,3.20
2022-12-18T13:06:09.747Z,3.22
2022-12-18T13:08:58.290Z,3.15
2022-12-18T13:12:04.089Z,3.24
2022-12-18T13:14:37.616Z,3.18
2022-12-18T13:17:37.287Z,3.26
2022-12-18T13:20:10.898Z,3.28
2022-12-18T13:22:43.351Z,3.30
2022-12-18T13:25:35.951Z,3.26
2022-12-18T13:28:15.386Z,3.22
2022-12-18T13:30:57.394Z,3.09
2022-12-18T13:34:16.521Z,3.05
2022-12-18T13:36:37.395Z,2.98
2022-12-18T13:39:35.508Z,2.95
2022-12-18T13:42:54.161Z,2.81
2022-12-18T13:45:47.387Z,2.81
2022-12-18T13:48:24.082Z,2.77
2022-12-18T13:51:04.536Z,2.71
2022-12-18T13:53:40.485Z,2.74
2022-12-18T13:56:11.589Z,2.67
2022-12-18T13:58:42.146Z,2.61
2022-12-18T14:01:28.322Z,2.63
2022-12-18T14:04:14.163Z,2.56
2022-12-18T14:06:46.972Z,2.51
2022-12-18T14:09:21.554Z,2.42
2022-12-18T14:11:53.204Z,2.39
2022-12-18T14:14:28.087Z,2.36
2022-12-18T14:17:03.280Z,2.30
2022-12-18T14:19:35.513Z,2.29
2022-12-18T14:22:08.503Z,2.20
2022-12-18T14:24:38.565Z,2.13
2022-12-18T14:27:23.897Z,2.10
2022-12-18T14:29:57.496Z,2.06
2022-12-18T14:32:27.589Z,1.97
2022-12-18T14:34:58.244Z,2.04
2022-12-18T14:37:32.257Z,1.97
2022-12-18T14:40:10.576Z,1.92
2022-12-18T14:42:41.776Z,1.69
2022-12-18T14:45:42.617Z,1.79
2022-12-18T14:48:23.106Z,1.72
2022-12-18T14:51:03.887Z,1.65
2022-12-18T14:53:42.093Z,1.60
2022-12-18T14:56:20.612Z,1.51
2022-12-18T14:58:52.701Z,1.43
2022-12-18T15:01:25.348Z,1.42
2022-12-18T15:03:56.494Z,1.39
2022-12-18T15:06:33.003Z,1.43
2022-12-18T15:09:08.204Z,1.38
2022-12-18T15:11:47.466Z,1.29
2022-12-18T15:14:34.341Z,1.22
2022-12-18T15:17:07.330Z,1.25
2022-12-18T15:19:42.497Z,1.23
2022-12-18T15:22:24.514Z,1.23
2022-12-18T15:24:58.098Z,1.25
2022-12-18T15:27:34.546Z,1.26
2022-12-18T15:30:20.133Z,1.22
2022-12-18T15:32:51.367Z,1.21
2022-12-18T15:35:24.416Z,1.19
2022-12-18T15:37:55.856Z,1.21
2022-12-18T15:40:28.812Z,1.19
2022-12-18T15:43:12.468Z,1.25
2022-12-18T15:45:42.614Z,1.25
2022-12-18T15:48:24.019Z,1.27
2022-12-18T15:50:57.815Z,1.31
2022-12-18T15:53:29.203Z,1.29
2022-12-18T15:56:14.679Z,1.32
2022-12-18T15:58:44.804Z,1.32
2022-12-18T16:01:18.960Z,1.37
2022-12-18T16:03:48.990Z,1.42
2022-12-18T16:06:19.244Z,1.42
2022-12-18T16:08:49.314Z,1.39
2022-12-18T16:11:39.168Z,1.30
2022-12-18T16:14:16.693Z,1.40
2022-12-18T16:16:47.080Z,1.38
2022-12-18T16:19:20.008Z,1.34
2022-12-18T16:21:51.218Z,1.38
2022-12-18T16:24:23.292Z,1.41
2022-12-18T16:26:57.153Z,1.43
2022-12-18T16:29:28.717Z,1.44
2022-12-18T16:31:59.158Z,1.48
2022-12-18T16:34:34.908Z,1.52
2022-12-18T16:37:07.868Z,1.48
2022-12-18T16:39:38.288Z,1.46
2022-12-18T16:42:17.690Z,1.46
2022-12-18T16:44:48.510Z,0.99
2022-12-18T16:47:18.861Z,1.50
2022-12-18T16:49:51.890Z,1.44
2022-12-18T16:52:23.192Z,1.37
2022-12-18T16:54:53.311Z,1.31
2022-12-18T16:57:26.376Z,1.16
2022-12-18T17:00:02.944Z,1.20
2022-12-18T17:02:35.241Z,1.20
2022-12-18T17:05:05.555Z,1.24
2022-12-18T17:07:36.654Z,1.29
2022-12-18T17:10:09.028Z,1.32
2022-12-18T17:12:43.016Z,1.34
2022-12-18T17:15:14.404Z,1.39
2022-12-18T17:17:44.423Z,1.44
2022-12-18T17:20:15.052Z,1.46
2022-12-18T17:22:45.075Z,1.56
2022-12-18T17:25:15.156Z,1.56
2022-12-18T17:27:47.928Z,1.61
2022-12-18T17:30:18.153Z,1.65
2022-12-18T17:32:48.276Z,1.65
2022-12-18T17:35:23.672Z,1.70
2022-12-18T17:37:53.958Z,1.67
2022-12-18T17:40:24.158Z,1.67
2022-12-18T17:42:58.312Z,1.69
2022-12-18T17:45:28.396Z,1.65
2022-12-18T17:48:00.074Z,1.66
2022-12-18T17:50:30.421Z,1.68
2022-12-18T17:53:02.841Z,1.69
2022-12-18T17:55:32.904Z,1.68
2022-12-18T17:58:11.056Z,1.67
2022-12-18T18:00:42.433Z,1.70
2022-12-18T18:03:12.878Z,1.67
2022-12-18T18:05:43.131Z,1.69
2022-12-18T18:08:13.691Z,1.65
2022-12-18T18:10:44.381Z,1.67
2022-12-18T18:13:38.724Z,1.57
2022-12-18T18:16:12.141Z,1.67
2022-12-18T18:18:42.608Z,1.58
2022-12-18T18:21:12.717Z,1.63
2022-12-18T18:23:45.104Z,1.60
2022-12-18T18:26:16.843Z,1.61
2022-12-18T18:28:49.713Z,1.50
2022-12-18T18:31:19.985Z,1.49
2022-12-18T18:33:50.343Z,1.59
2022-12-18T18:36:20.484Z,1.58
2022-12-18T18:38:50.585Z,1.56
2022-12-18T18:41:22.267Z,1.53
2022-12-18T18:43:57.493Z,1.57
2022-12-18T18:46:28.728Z,1.52
2022-12-18T18:48:58.948Z,1.57
2022-12-18T18:51:34.658Z,1.64
2022-12-18T18:54:05.718Z,1.70
2022-12-18T18:59:31.587Z,1.65
2022-12-18T19:02:04.648Z,1.61
2022-12-18T19:04:37.796Z,1.60
2022-12-18T19:07:29.744Z,1.57
2022-12-18T19:10:05.237Z,1.52
2022-12-18T19:12:49.115Z,1.60
2022-12-18T19:15:22.091Z,1.69
2022-12-18T19:17:52.250Z,1.69
2022-12-18T19:20:22.521Z,1.65
2022-12-18T19:22:55.316Z,1.69
2022-12-18T19:25:38.162Z,1.75
2022-12-18T19:28:21.466Z,1.76
2022-12-18T19:30:58.859Z,1.74
2022-12-18T19:33:42.872Z,1.72
2022-12-18T19:36:16.664Z,1.82
2022-12-18T19:38:47.330Z,1.77
2022-12-18T19:41:18.117Z,1.76
2022-12-18T19:43:49.390Z,1.72
2022-12-18T19:46:24.012Z,1.72
2022-12-18T19:48:55.131Z,1.79
2022-12-18T19:51:27.989Z,1.75
2022-12-18T19:54:01.234Z,1.81
2022-12-18T19:56:33.931Z,1.83
2022-12-18T19:59:05.067Z,1.87
2022-12-18T20:01:38.164Z,1.83
2022-12-18T20:04:08.509Z,1.85
2022-12-18T20:06:49.946Z,1.92
2022-12-18T20:09:20.917Z,1.92
2022-12-18T20:11:51.921Z,1.95
2022-12-18T20:14:23.427Z,1.96
2022-12-18T20:16:56.303Z,1.90
2022-12-18T20:19:27.013Z,1.87
2022-12-18T20:21:57.411Z,1.87
2022-12-18T20:24:28.094Z,1.89
2022-12-18T20:26:58.680Z,1.83
2022-12-18T20:29:32.097Z,1.84
2022-12-18T20:32:04.787Z,1.83
2022-12-18T20:34:35.135Z,1.81
2022-12-18T20:37:05.418Z,1.80
2022-12-18T20:39:36.274Z,1.82
2022-12-18T20:42:08.024Z,1.82
2022-12-18T20:44:38.213Z,1.83
2022-12-18T20:47:10.991Z,1.88
2022-12-18T20:49:42.654Z,1.88
2022-12-18T20:52:22.749Z,1.87
2022-12-18T20:54:53.921Z,1.80
2022-12-18T20:57:24.136Z,1.79
2022-12-18T20:59:54.337Z,1.80
2022-12-18T21:02:27.280Z,1.83
2022-12-18T21:04:57.549Z,1.81
2022-12-18T21:07:27.650Z,1.86
2022-12-18T21:09:57.828Z,1.79
2022-12-18T21:15:16.273Z,1.07
2022-12-18T21:17:49.344Z,1.72
2022-12-18T21:20:19.793Z,1.72
2022-12-18T21:22:50.228Z,1.76
2022-12-18T21:25:20.556Z,1.78
2022-12-18T21:27:50.708Z,1.76
2022-12-18T21:30:20.897Z,1.74
2022-12-18T21:32:53.703Z,1.66
2022-12-18T21:35:23.741Z,1.81
2022-12-18T21:37:56.461Z,1.77
2022-12-18T21:40:27.424Z,1.75
2022-12-18T21:43:09.867Z,1.79
2022-12-18T21:45:41.278Z,1.72
2022-12-18T21:48:14.075Z,1.75
2022-12-18T21:50:44.235Z,1.72
2022-12-18T21:53:14.279Z,1.76
2022-12-18T21:55:44.506Z,1.74
2022-12-18T21:58:14.775Z,1.73
2022-12-18T22:00:48.678Z,1.70
2022-12-18T22:03:22.056Z,1.76
2022-12-18T22:06:08.880Z,1.70
2022-12-18T22:08:39.912Z,1.68
2022-12-18T22:11:15.066Z,1.70
2022-12-18T22:13:46.447Z,1.70
2022-12-18T22:16:19.304Z,1.71
2022-12-18T22:18:52.027Z,1.70
2022-12-18T22:21:30.319Z,1.75
2022-12-18T22:24:02.155Z,1.74
2022-12-18T22:26:39.525Z,1.70
2022-12-18T22:29:24.832Z,1.68
2022-12-18T22:31:55.367Z,1.59
2022-12-18T22:34:28.023Z,1.62
2022-12-18T22:36:58.233Z,1.65
2022-12-18T22:39:29.758Z,1.73
2022-12-18T22:42:00.876Z,1.64
2022-12-18T22:44:31.285Z,1.66
2022-12-18T22:47:06.934Z,1.65
2022-12-18T22:49:40.579Z,1.63
2022-12-18T22:52:12.281Z,1.64
2022-12-18T22:54:43.498Z,1.66
2022-12-18T22:57:13.568Z,1.54
2022-12-18T22:59:45.042Z,1.59
2022-12-18T23:02:15.247Z,1.62
2022-12-18T23:04:48.148Z,1.61
2022-12-18T23:07:18.501Z,1.58
2022-12-18T23:09:50.734Z,1.61
2022-12-18T23:12:27.643Z,1.65
2022-12-18T23:14:57.745Z,1.65
2022-12-18T23:17:30.416Z,1.68
2022-12-18T23:20:03.229Z,1.69
2022-12-18T23:22:39.386Z,1.65
2022-12-18T23:25:12.791Z,1.68
2022-12-18T23:27:42.854Z,1.64
2022-12-18T23:30:14.467Z,1.62
2022-12-18T23:32:44.600Z,1.60
2022-12-18T23:35:17.517Z,1.63
2022-12-18T23:37:59.268Z,1.61
2022-12-18T23:40:30.013Z,1.67
2022-12-18T23:43:00.181Z,1.64
2022-12-18T23:45:30.458Z,1.72
2022-12-18T23:48:00.527Z,1.66
2022-12-18T23:50:33.239Z,1.59
2022-12-18T23:53:05.464Z,1.53
2022-12-18T23:55:40.206Z,1.55
2022-12-18T23:58:11.325Z,1.51
